Time;durP1;ratioP1;P1;durP2;ratioP2;P2;SDS_P1;SDS_P2;PMS_P1;PMS_P2;Temp;Humidity;BMP_temperature;BMP_pressure;BME280_temperature;BME280_humidity;BME280_pressure;Samples;Min_cycle;Max_cycle;Signal;HPM_P1;HPM_P2
2022/01/28 00:01:44;;;;;;;13.38;3.10;;;4.70;99.90;;;;;;5073151;28;20055;-63
2022/01/28 00:04:16;;;;;;;17.08;2.70;;;4.70;99.90;;;;;;5073470;28;20040;-63
2022/01/28 00:06:42;;;;;;;13.73;2.95;;;4.70;99.90;;;;;;5072449;28;20102;-65
2022/01/28 00:09:08;;;;;;;12.95;2.60;;;4.70;99.90;;;;;;5072159;28;20413;-63
2022/01/28 00:11:34;;;;;;;13.50;2.80;;;4.70;99.90;;;;;;5073195;28;20040;-62
2022/01/28 00:38:46;;;;;;;17.40;3.33;;;4.60;99.90;;;;;;5056163;28;20488;-63
2022/01/28 00:41:13;;;;;;;18.05;3.80;;;4.60;99.90;;;;;;5055495;28;20366;-63
2022/01/28 00:43:39;;;;;;;22.92;4.25;;;4.60;99.90;;;;;;5056376;28;20064;-63
2022/01/28 00:46:05;;;;;;;19.08;3.45;;;4.70;99.90;;;;;;5055597;28;20071;-63
2022/01/28 00:48:31;;;;;;;27.67;4.80;;;4.70;99.90;;;;;;5055388;28;20461;-64
2022/01/28 00:50:56;;;;;;;13.60;2.92;;;4.80;99.90;;;;;;5056068;28;20037;-63
2022/01/28 00:53:22;;;;;;;21.75;3.88;;;4.90;99.90;;;;;;5056305;28;20044;-64
2022/01/28 00:55:48;;;;;;;20.27;4.10;;;5.00;99.90;;;;;;5054276;28;20041;-63
2022/01/28 00:58:14;;;;;;;16.25;3.80;;;5.00;99.90;;;;;;5054959;28;20059;-64
2022/01/28 01:00:40;;;;;;;16.80;3.65;;;5.10;99.90;;;;;;5055759;28;20087;-63
2022/01/28 01:03:06;;;;;;;19.08;3.70;;;5.00;99.90;;;;;;5056000;28;20048;-63
2022/01/28 01:05:33;;;;;;;15.30;3.67;;;5.00;99.90;;;;;;5055470;28;20063;-64
2022/01/28 01:08:00;;;;;;;18.10;3.30;;;4.90;99.90;;;;;;5055338;28;20055;-64
2022/01/28 01:10:27;;;;;;;12.98;3.00;;;4.90;99.90;;;;;;5055910;28;20033;-63
2022/01/28 01:12:53;;;;;;;17.42;3.97;;;4.90;99.90;;;;;;5055801;28;20048;-64
2022/01/28 01:15:20;;;;;;;18.65;3.85;;;4.80;99.90;;;;;;5054016;28;20057;-63
2022/01/28 01:17:59;;;;;;;16.88;4.07;;;4.90;99.90;;;;;;5055165;28;20052;-65
2022/01/28 01:23:05;;;;;;;24.48;4.88;;;4.80;99.90;;;;;;5055052;28;20451;-64
2022/01/28 01:25:41;;;;;;;26.10;4.25;;;4.80;99.90;;;;;;5053943;28;20377;-64
2022/01/28 01:28:07;;;;;;;19.38;4.35;;;4.90;99.90;;;;;;5054990;28;20123;-63
2022/01/28 01:30:38;;;;;;;23.55;4.72;;;4.90;99.90;;;;;;5055304;28;20144;-64
2022/01/28 01:33:05;;;;;;;29.52;4.45;;;5.00;99.90;;;;;;5055517;28;20041;-64
2022/01/28 01:35:32;;;;;;;25.95;4.97;;;5.00;99.90;;;;;;5054962;28;20130;-65
2022/01/28 01:37:58;;;;;;;24.58;4.55;;;5.00;99.90;;;;;;5053719;28;20044;-64
2022/01/28 01:40:30;;;;;;;25.63;4.47;;;5.10;99.90;;;;;;5055228;28;20090;-64
2022/01/28 01:43:08;;;;;;;22.45;4.00;;;5.00;99.90;;;;;;5055188;28;20064;-63
2022/01/28 01:53:49;;;;;;;21.60;4.10;;;4.90;99.90;;;;;;5054245;28;20041;-62
2022/01/28 01:56:15;;;;;;;28.75;3.85;;;4.90;99.90;;;;;;5053140;28;20051;-63
2022/01/28 01:58:42;;;;;;;24.52;4.80;;;4.80;99.90;;;;;;5054790;28;20033;-64
2022/01/28 02:01:07;;;;;;;21.15;4.30;;;4.80;99.90;;;;;;5053883;28;20041;-64
2022/01/28 02:03:33;;;;;;;23.60;4.75;;;4.80;99.90;;;;;;5054789;28;20047;-64
2022/01/28 02:06:00;;;;;;;23.33;4.50;;;4.80;99.90;;;;;;5052926;28;20037;-65
2022/01/28 02:08:28;;;;;;;24.25;4.38;;;4.80;99.90;;;;;;5054802;28;20037;-64
2022/01/28 02:10:58;;;;;;;20.70;3.83;;;4.80;99.90;;;;;;5054466;28;20450;-65
2022/01/28 02:13:27;;;;;;;20.52;4.93;;;4.80;99.90;;;;;;5054478;28;20106;-62
2022/01/28 02:15:56;;;;;;;21.08;3.80;;;4.90;99.90;;;;;;5053191;28;20049;-63
2022/01/28 02:18:23;;;;;;;25.40;4.80;;;4.90;99.90;;;;;;5054179;28;20037;-64
2022/01/28 02:20:51;;;;;;;18.15;3.17;;;4.90;99.90;;;;;;5054120;28;20485;-63
2022/01/28 02:23:19;;;;;;;22.13;5.00;;;4.90;99.90;;;;;;5054493;28;20041;-63
2022/01/28 02:25:46;;;;;;;16.42;3.28;;;4.80;99.90;;;;;;5054054;28;20144;-65
2022/01/28 02:28:14;;;;;;;17.13;3.78;;;4.80;99.90;;;;;;5054073;28;20410;-65
2022/01/28 02:30:40;;;;;;;16.92;3.45;;;4.70;99.90;;;;;;5052822;28;20392;-63
2022/01/28 02:33:16;;;;;;;16.67;3.25;;;4.70;99.90;;;;;;5053953;28;20136;-64
2022/01/28 02:35:43;;;;;;;16.77;3.08;;;4.70;99.90;;;;;;5053695;28;20041;-63
2022/01/28 02:38:10;;;;;;;24.30;4.25;;;4.60;99.90;;;;;;5054177;28;20098;-63
2022/01/28 02:40:36;;;;;;;12.50;2.90;;;4.60;99.90;;;;;;5054072;28;20065;-64
2022/01/28 02:43:26;;;;;;;16.42;2.92;;;4.60;99.90;;;;;;5053788;28;20056;-64
2022/01/28 02:45:50;;;;;;;17.63;3.15;;;4.60;99.90;;;;;;5052506;28;20056;-63
2022/01/28 02:48:22;;;;;;;18.75;3.30;;;4.70;99.90;;;;;;5054066;28;20041;-64
2022/01/28 02:53:23;;;;;;;19.25;3.08;;;4.70;99.90;;;;;;5054085;28;20059;-66
2022/01/28 02:55:56;;;;;;;15.23;2.80;;;4.80;99.90;;;;;;5053291;28;20044;-64
2022/01/28 02:58:24;;;;;;;15.05;2.85;;;4.80;99.90;;;;;;5053995;28;20087;-63
2022/01/28 03:00:51;;;;;;;20.95;3.33;;;4.90;99.90;;;;;;5053405;28;20105;-63
2022/01/28 03:03:18;;;;;;;17.05;3.08;;;4.90;99.90;;;;;;5053869;28;20079;-64
2022/01/28 03:05:45;;;;;;;14.80;3.03;;;4.90;99.90;;;;;;5052001;28;20045;-64
2022/01/28 03:08:12;;;;;;;16.25;3.05;;;5.00;99.90;;;;;;5053952;28;20109;-64
2022/01/28 03:13:17;;;;;;;13.90;3.22;;;5.00;99.90;;;;;;5053760;28;20509;-63
2022/01/28 03:15:50;;;;;;;23.05;4.15;;;5.00;99.90;;;;;;5052482;28;20056;-64
2022/01/28 03:18:21;;;;;;;19.13;3.67;;;5.00;99.90;;;;;;5053836;28;20103;-63
2022/01/28 03:23:18;;;;;;;18.58;3.67;;;5.00;99.90;;;;;;5053403;28;20033;-64
2022/01/28 03:25:45;;;;;;;19.27;3.33;;;5.00;99.90;;;;;;5053071;28;20366;-65
2022/01/28 03:28:13;;;;;;;21.25;3.78;;;5.00;99.90;;;;;;5053487;28;20210;-65
2022/01/28 03:30:39;;;;;;;14.32;3.47;;;5.00;99.90;;;;;;5053070;28;20049;-64
2022/01/28 03:33:05;;;;;;;12.10;2.63;;;5.00;99.90;;;;;;5053477;28;20053;-65
2022/01/28 03:35:34;;;;;;;18.50;3.75;;;5.00;99.90;;;;;;5052591;28;20049;-65
2022/01/28 03:38:00;;;;;;;19.45;4.25;;;5.00;99.90;;;;;;5053388;28;20102;-64
2022/01/28 03:40:28;;;;;;;18.02;3.22;;;5.00;99.90;;;;;;5053381;28;20075;-65
2022/01/28 03:42:54;;;;;;;12.40;3.25;;;5.00;99.90;;;;;;5052937;28;20043;-66
2022/01/28 03:45:19;;;;;;;16.58;2.90;;;5.00;99.90;;;;;;5052909;28;20045;-64
2022/01/28 03:47:45;;;;;;;19.35;3.05;;;5.00;99.90;;;;;;5052790;28;20120;-64
2022/01/28 03:50:10;;;;;;;14.82;2.58;;;5.10;99.90;;;;;;5053196;28;20124;-64
2022/01/28 03:52:36;;;;;;;17.65;2.78;;;5.10;99.90;;;;;;5052550;28;20462;-65
2022/01/28 03:55:02;;;;;;;12.95;2.30;;;5.10;99.90;;;;;;5052764;28;20041;-64
2022/01/28 03:57:28;;;;;;;16.20;3.03;;;5.10;99.90;;;;;;5054002;28;20166;-66
2022/01/28 03:59:54;;;;;;;13.05;2.90;;;5.00;99.90;;;;;;5057091;28;20040;-64
2022/01/28 04:02:23;;;;;;;18.45;2.90;;;5.00;99.90;;;;;;5055809;28;20457;-65
2022/01/28 04:12:50;;;;;;;19.33;3.10;;;4.90;99.90;;;;;;5056842;28;20447;-65
2022/01/28 04:17:59;;;;;;;16.23;2.80;;;4.90;99.90;;;;;;5056779;28;20041;-64
2022/01/28 04:20:25;;;;;;;19.02;3.47;;;4.90;99.90;;;;;;5056754;28;20628;-64
2022/01/28 04:22:51;;;;;;;27.42;4.13;;;4.90;99.90;;;;;;5056561;28;20401;-64
2022/01/28 04:25:16;;;;;;;18.27;3.30;;;5.00;99.90;;;;;;5056344;28;20122;-65
2022/01/28 04:27:42;;;;;;;19.52;3.30;;;5.00;99.90;;;;;;5055213;28;20051;-65
2022/01/28 04:30:08;;;;;;;23.70;3.55;;;4.90;99.90;;;;;;5056393;28;20040;-64
2022/01/28 04:32:35;;;;;;;17.58;3.33;;;4.90;99.90;;;;;;5056562;28;20365;-65
2022/01/28 04:35:03;;;;;;;18.65;3.30;;;4.80;99.90;;;;;;5056109;28;20056;-65
2022/01/28 04:37:39;;;;;;;19.98;3.45;;;4.80;99.90;;;;;;5055118;28;20072;-64
2022/01/28 04:45:16;;;;;;;15.38;3.35;;;4.60;99.90;;;;;;5055952;28;20121;-64
2022/01/28 04:48:07;;;;;;;19.05;4.00;;;4.60;99.90;;;;;;5054714;28;20049;-64
2022/01/28 04:51:25;;;;;;;19.63;3.50;;;4.50;99.90;;;;;;5056285;28;20037;-64
2022/01/28 04:53:51;;;;;;;18.23;3.80;;;4.40;99.90;;;;;;5049435;28;20049;-64
2022/01/28 04:59:33;;;;;;;26.25;4.10;;;4.30;99.90;;;;;;5056100;28;20068;-64
2022/01/28 05:07:26;;;;;;;22.45;3.58;;;4.20;99.90;;;;;;5053934;28;20332;-63
2022/01/28 05:13:06;;;;;;;24.25;3.92;;;4.20;99.90;;;;;;5054642;28;20040;-63
2022/01/28 05:15:47;;;;;;;20.90;3.70;;;4.10;99.90;;;;;;5054509;28;20060;-63
2022/01/28 05:26:53;;;;;;;21.75;3.55;;;4.10;99.90;;;;;;5054896;28;20045;-64
2022/01/28 05:29:18;;;;;;;20.15;3.78;;;4.10;99.90;;;;;;5055299;28;20045;-64
2022/01/28 05:31:44;;;;;;;21.92;3.55;;;4.20;99.90;;;;;;5054068;28;20347;-64
2022/01/28 05:34:09;;;;;;;19.17;3.72;;;4.30;99.90;;;;;;5055370;28;20041;-64
2022/01/28 05:36:35;;;;;;;20.40;3.72;;;4.30;99.90;;;;;;5054324;28;20069;-64
2022/01/28 05:39:01;;;;;;;17.23;2.80;;;4.30;99.90;;;;;;5054304;28;20112;-63
2022/01/28 05:41:26;;;;;;;14.13;3.42;;;4.30;99.90;;;;;;5054213;28;20033;-63
2022/01/28 05:43:52;;;;;;;26.25;4.60;;;4.30;99.90;;;;;;5054721;28;20037;-64
2022/01/28 05:46:18;;;;;;;20.58;3.20;;;4.40;99.90;;;;;;5054305;28;20040;-66
2022/01/28 05:48:44;;;;;;;17.15;3.47;;;4.40;99.90;;;;;;5053821;28;20048;-64
2022/01/28 05:51:11;;;;;;;24.30;3.67;;;4.50;99.90;;;;;;5051716;28;20052;-65
2022/01/28 05:53:37;;;;;;;30.77;4.68;;;4.50;99.90;;;;;;5053909;28;20052;-64
2022/01/28 05:56:03;;;;;;;14.82;3.50;;;4.50;99.90;;;;;;5053253;28;20032;-64
2022/01/28 05:58:28;;;;;;;20.23;3.58;;;4.40;99.90;;;;;;5053788;28;20370;-65
2022/01/28 06:00:54;;;;;;;19.73;3.95;;;4.40;99.90;;;;;;5053463;28;20462;-63
2022/01/28 06:03:20;;;;;;;22.15;3.83;;;4.40;99.90;;;;;;5054721;28;20037;-64
2022/01/28 06:05:47;;;;;;;20.85;3.40;;;4.40;99.90;;;;;;5041622;28;20076;-65
2022/01/28 06:08:13;;;;;;;21.05;3.38;;;4.40;99.90;;;;;;5035028;28;20051;-64
2022/01/28 06:10:39;;;;;;;25.45;3.30;;;4.40;99.90;;;;;;5038463;28;20365;-66
2022/01/28 06:13:05;;;;;;;19.00;3.80;;;4.40;99.90;;;;;;5054668;28;20142;-64
2022/01/28 06:15:31;;;;;;;26.25;3.20;;;4.40;99.90;;;;;;5045971;28;20084;-64
2022/01/28 06:17:57;;;;;;;18.55;3.60;;;4.30;99.90;;;;;;5054366;28;20049;-66
2022/01/28 06:20:23;;;;;;;18.55;3.72;;;4.30;99.90;;;;;;5044256;28;20124;-65
2022/01/28 06:22:49;;;;;;;21.25;3.78;;;4.20;99.90;;;;;;5054456;28;20029;-66
2022/01/28 06:25:15;;;;;;;20.70;4.00;;;4.20;99.90;;;;;;5051755;28;20041;-64
2022/01/28 06:27:43;;;;;;;19.67;3.75;;;4.10;99.90;;;;;;5053074;28;20045;-64
2022/01/28 06:30:09;;;;;;;24.45;3.40;;;4.10;99.90;;;;;;5054379;28;20116;-64
2022/01/28 06:32:35;;;;;;;19.77;3.50;;;4.00;99.90;;;;;;5054035;28;20068;-64
2022/01/28 06:35:07;;;;;;;17.33;3.65;;;4.00;99.90;;;;;;5053053;28;20496;-64
2022/01/28 06:37:37;;;;;;;20.83;3.80;;;4.00;99.90;;;;;;5051225;28;20048;-64
2022/01/28 06:40:10;;;;;;;25.33;4.75;;;3.90;99.90;;;;;;5037772;28;20064;-65
2022/01/28 06:42:36;;;;;;;15.50;3.13;;;3.80;99.90;;;;;;5033901;28;20073;-65
2022/01/28 06:45:03;;;;;;;16.27;3.83;;;3.80;99.90;;;;;;5051227;28;20161;-65
2022/01/28 06:47:28;;;;;;;20.05;3.38;;;3.70;99.90;;;;;;5052549;28;20366;-64
2022/01/28 06:49:54;;;;;;;20.10;3.20;;;3.70;99.90;;;;;;5053940;28;20508;-65
2022/01/28 06:52:20;;;;;;;21.35;3.72;;;3.60;99.90;;;;;;5053482;28;20053;-67
2022/01/28 06:54:45;;;;;;;19.67;4.32;;;3.50;99.90;;;;;;5053211;28;20084;-68
2022/01/28 06:57:11;;;;;;;22.88;4.32;;;3.50;99.90;;;;;;5052236;28;20041;-68
2022/01/28 06:59:37;;;;;;;20.85;3.58;;;3.40;99.90;;;;;;5050200;28;20136;-67
2022/01/28 07:02:02;;;;;;;24.23;4.30;;;3.40;99.90;;;;;;5032230;28;20040;-67
2022/01/28 07:04:28;;;;;;;20.30;4.65;;;3.40;99.90;;;;;;5030624;28;20041;-67
2022/01/28 07:06:53;;;;;;;18.45;4.18;;;3.40;99.90;;;;;;5047997;28;20052;-64
2022/01/28 07:09:26;;;;;;;25.05;3.80;;;3.40;99.90;;;;;;5048472;28;20037;-65
2022/01/28 07:11:51;;;;;;;23.05;4.00;;;3.40;99.90;;;;;;5031204;28;20179;-66
2022/01/28 07:14:17;;;;;;;26.20;4.30;;;3.40;99.90;;;;;;5031506;28;20393;-65
2022/01/28 07:16:43;;;;;;;22.48;4.43;;;3.40;99.90;;;;;;5035104;28;20056;-66
2022/01/28 07:19:09;;;;;;;23.52;4.32;;;3.50;99.90;;;;;;5047768;28;20045;-66
2022/01/28 07:21:35;;;;;;;17.85;3.78;;;3.40;99.90;;;;;;5040886;28;20033;-65
2022/01/28 07:24:00;;;;;;;26.88;4.53;;;3.40;99.90;;;;;;5035138;28;20029;-65
2022/01/28 07:26:26;;;;;;;31.27;4.78;;;3.40;99.90;;;;;;5035119;28;20120;-64
2022/01/28 07:28:53;;;;;;;23.45;4.72;;;3.40;99.90;;;;;;5036474;28;20053;-64
2022/01/28 07:31:19;;;;;;;28.50;4.85;;;3.40;99.90;;;;;;5054164;28;20102;-65
2022/01/28 07:33:45;;;;;;;19.75;4.03;;;3.40;99.90;;;;;;5057377;28;20025;-64
2022/01/28 07:36:12;;;;;;;20.13;4.50;;;3.40;99.90;;;;;;5056170;28;20079;-64
2022/01/28 07:38:37;;;;;;;23.05;4.45;;;3.40;99.90;;;;;;5056057;28;20117;-65
2022/01/28 07:41:04;;;;;;;24.77;5.10;;;3.30;99.90;;;;;;5057136;28;20094;-65
2022/01/28 07:43:31;;;;;;;23.42;4.70;;;3.40;99.90;;;;;;5057510;28;20051;-65
2022/01/28 07:45:57;;;;;;;21.52;3.50;;;3.40;99.90;;;;;;5053912;28;20049;-66
2022/01/28 07:48:23;;;;;;;22.15;3.95;;;3.40;99.90;;;;;;5052254;28;20041;-66
2022/01/28 07:50:50;;;;;;;27.23;5.18;;;3.40;99.90;;;;;;5035239;28;20064;-64
2022/01/28 07:53:17;;;;;;;19.75;3.97;;;3.40;99.90;;;;;;5036204;28;20438;-65
2022/01/28 07:55:43;;;;;;;23.77;5.60;;;3.50;99.90;;;;;;5042650;28;20056;-65
2022/01/28 07:58:09;;;;;;;25.92;5.25;;;3.60;99.90;;;;;;5057204;28;20036;-64
2022/01/28 08:00:35;;;;;;;19.17;4.72;;;3.60;99.90;;;;;;5056782;28;20043;-64
2022/01/28 08:03:01;;;;;;;25.02;4.00;;;3.60;99.90;;;;;;5057001;28;20033;-65
2022/01/28 08:05:26;;;;;;;21.60;4.47;;;3.70;99.90;;;;;;5056430;28;20071;-65
2022/01/28 08:07:52;;;;;;;25.45;4.25;;;3.70;99.90;;;;;;5056973;28;20037;-65
2022/01/28 08:10:19;;;;;;;19.88;4.28;;;3.70;99.90;;;;;;5056102;28;20124;-66
2022/01/28 08:12:52;;;;;;;25.98;5.00;;;3.70;99.90;;;;;;5056001;28;20059;-65
2022/01/28 08:15:19;;;;;;;22.48;4.63;;;3.70;99.90;;;;;;5055957;28;20594;-66
2022/01/28 08:17:46;;;;;;;28.52;5.75;;;3.70;99.90;;;;;;5056341;28;20442;-64
2022/01/28 08:20:13;;;;;;;24.40;4.85;;;3.70;99.90;;;;;;5056783;28;20120;-64
2022/01/28 08:22:50;;;;;;;24.50;4.80;;;3.60;99.90;;;;;;5056677;28;20091;-65
2022/01/28 08:25:17;;;;;;;22.65;4.80;;;3.70;99.90;;;;;;5056339;28;20080;-64
2022/01/28 08:27:44;;;;;;;21.50;4.95;;;3.60;99.90;;;;;;5056781;28;20110;-64
2022/01/28 08:30:12;;;;;;;24.95;4.22;;;3.70;99.90;;;;;;5055672;28;20053;-65
2022/01/28 08:32:38;;;;;;;24.10;4.30;;;3.70;99.90;;;;;;5053256;28;20048;-66
2022/01/28 08:35:05;;;;;;;25.58;4.22;;;3.80;99.90;;;;;;5054555;28;20037;-65
2022/01/28 08:37:31;;;;;;;22.13;4.00;;;3.80;99.90;;;;;;5055287;28;20048;-64
2022/01/28 08:39:56;;;;;;;21.38;4.00;;;3.80;99.90;;;;;;5040872;28;20790;-65
2022/01/28 08:42:22;;;;;;;18.40;4.43;;;3.90;99.90;;;;;;5034929;28;20524;-67
2022/01/28 08:44:48;;;;;;;24.67;5.30;;;3.90;99.90;;;;;;5035363;28;20033;-63
2022/01/28 08:47:14;;;;;;;27.25;5.68;;;4.00;99.90;;;;;;5054477;28;20086;-66
2022/01/28 08:49:40;;;;;;;34.20;7.75;;;4.00;99.90;;;;;;5056132;28;20033;-64
2022/01/28 08:52:06;;;;;;;39.40;10.40;;;4.00;99.90;;;;;;5055272;28;20366;-65
2022/01/28 08:54:31;;;;;;;30.70;9.93;;;4.00;99.90;;;;;;5054866;28;20472;-65
2022/01/28 08:56:57;;;;;;;33.45;10.18;;;4.00;99.90;;;;;;5055317;28;20029;-65
2022/01/28 08:59:23;;;;;;;29.95;9.48;;;4.10;99.90;;;;;;5055670;28;20523;-64
2022/01/28 09:01:48;;;;;;;36.97;10.27;;;4.20;99.90;;;;;;5055619;28;20072;-65
2022/01/28 09:04:14;;;;;;;26.88;8.02;;;4.40;99.90;;;;;;5055910;28;20040;-65
2022/01/28 09:06:40;;;;;;;30.70;8.18;;;4.50;99.90;;;;;;5054052;28;20100;-65
2022/01/28 09:09:05;;;;;;;31.13;8.55;;;4.60;99.90;;;;;;5055580;28;20049;-64
2022/01/28 09:11:44;;;;;;;33.67;7.57;;;4.70;99.90;;;;;;5054494;28;20041;-65
2022/01/28 09:14:10;;;;;;;28.63;7.07;;;4.70;99.90;;;;;;5055499;28;20051;-65
2022/01/28 09:16:36;;;;;;;29.67;7.85;;;4.80;99.90;;;;;;5053745;28;20045;-64
2022/01/28 09:19:02;;;;;;;30.77;6.45;;;4.90;99.90;;;;;;5055465;28;20103;-64
2022/01/28 09:21:27;;;;;;;27.50;6.28;;;4.90;99.90;;;;;;5055532;28;20083;-63
2022/01/28 09:23:53;;;;;;;27.88;5.93;;;5.00;99.90;;;;;;5054276;28;20454;-64
2022/01/28 09:26:18;;;;;;;30.23;8.68;;;5.00;99.90;;;;;;5054780;28;20055;-65
2022/01/28 09:28:44;;;;;;;33.65;7.95;;;5.00;99.90;;;;;;5046664;28;20045;-64
2022/01/28 09:31:10;;;;;;;32.28;9.00;;;5.10;99.90;;;;;;5054294;28;20397;-66
2022/01/28 09:33:37;;;;;;;35.42;8.70;;;5.20;99.90;;;;;;5055315;28;20454;-64
2022/01/28 09:36:04;;;;;;;33.40;7.57;;;5.20;99.90;;;;;;5053721;28;20749;-65
2022/01/28 09:38:30;;;;;;;26.58;5.57;;;5.30;99.90;;;;;;5054047;28;20374;-65
2022/01/28 09:40:56;;;;;;;26.20;5.57;;;5.40;99.90;;;;;;5055116;28;20032;-65
2022/01/28 09:43:25;;;;;;;27.25;6.00;;;5.40;99.90;;;;;;5055098;28;20419;-65
2022/01/28 09:45:52;;;;;;;29.08;5.78;;;5.50;99.90;;;;;;5053468;28;20044;-64
2022/01/28 09:48:19;;;;;;;27.23;6.68;;;5.50;99.90;;;;;;5054990;28;20120;-64
2022/01/28 09:50:46;;;;;;;25.45;5.32;;;5.50;99.90;;;;;;5055127;28;20036;-64
2022/01/28 09:53:13;;;;;;;28.67;6.30;;;5.50;99.90;;;;;;5055362;28;20109;-66
2022/01/28 09:55:39;;;;;;;27.63;5.55;;;5.60;99.90;;;;;;5053370;28;20037;-65
2022/01/28 09:58:04;;;;;;;20.88;4.13;;;5.60;99.90;;;;;;5053414;28;20043;-64
2022/01/28 10:00:32;;;;;;;24.65;5.05;;;5.60;99.90;;;;;;5049149;28;20033;-64
2022/01/28 10:03:04;;;;;;;26.05;5.65;;;5.60;99.90;;;;;;5053426;28;20048;-65
2022/01/28 10:05:37;;;;;;;23.90;4.35;;;5.60;99.90;;;;;;5053806;28;20505;-64
2022/01/28 10:08:15;;;;;;;21.45;4.53;;;5.60;99.90;;;;;;5054769;28;20048;-64
2022/01/28 10:11:11;;;;;;;29.27;5.40;;;5.60;99.90;;;;;;5054153;28;20064;-65
2022/01/28 10:16:09;;;;;;;24.73;5.20;;;5.70;99.90;;;;;;5052960;28;20056;-63
2022/01/28 10:18:45;;;;;;;22.63;4.65;;;5.80;99.90;;;;;;5054304;28;20072;-65
2022/01/28 10:21:35;;;;;;;22.10;5.38;;;5.80;99.90;;;;;;5053615;28;20049;-65
2022/01/28 10:24:00;;;;;;;23.52;5.28;;;5.80;99.90;;;;;;5054308;28;20045;-65
2022/01/28 10:26:42;;;;;;;24.33;5.50;;;5.90;99.90;;;;;;5053658;28;20358;-65
2022/01/28 10:29:19;;;;;;;24.67;5.35;;;6.00;99.90;;;;;;5054346;28;20045;-64
2022/01/28 10:31:54;;;;;;;25.40;5.75;;;6.10;99.90;;;;;;5034041;28;20467;-65
2022/01/28 10:34:27;;;;;;;22.73;5.47;;;6.10;99.90;;;;;;5033097;28;20045;-66
2022/01/28 10:37:20;;;;;;;27.88;5.70;;;6.20;99.90;;;;;;5048284;28;20056;-66
2022/01/28 10:39:50;;;;;;;23.52;5.95;;;6.20;99.90;;;;;;5054000;28;20041;-65
2022/01/28 10:42:19;;;;;;;29.08;6.45;;;6.30;99.90;;;;;;5054034;28;20037;-65
2022/01/28 10:45:02;;;;;;;31.83;6.97;;;6.30;99.90;;;;;;5053946;28;20040;-64
2022/01/28 10:47:31;;;;;;;35.10;8.48;;;6.40;99.90;;;;;;5052387;28;20041;-64
2022/01/28 10:49:57;;;;;;;30.50;7.15;;;6.40;99.90;;;;;;5053789;28;20037;-65
2022/01/28 10:52:33;;;;;;;31.83;9.45;;;6.50;99.90;;;;;;5052951;28;20116;-65
2022/01/28 10:55:00;;;;;;;30.15;8.48;;;6.50;99.90;;;;;;5052254;28;20048;-65
2022/01/28 10:57:29;;;;;;;31.83;8.82;;;6.50;99.90;;;;;;5039238;28;20104;-64
2022/01/28 10:59:56;;;;;;;24.42;6.72;;;6.60;99.90;;;;;;5048986;28;20520;-64
2022/01/28 11:02:25;;;;;;;24.48;6.38;;;6.60;99.90;;;;;;5033450;28;20530;-64
2022/01/28 11:04:53;;;;;;;22.50;5.75;;;6.70;99.90;;;;;;5033484;28;20037;-64
2022/01/28 11:07:19;;;;;;;24.50;6.40;;;6.70;99.90;;;;;;5051581;28;20045;-63
2022/01/28 11:09:45;;;;;;;23.58;6.03;;;6.80;99.90;;;;;;5053839;28;20044;-64
2022/01/28 11:12:12;;;;;;;23.83;5.68;;;6.90;99.90;;;;;;5053520;28;20350;-64
2022/01/28 11:14:38;;;;;;;21.27;5.50;;;6.90;99.90;;;;;;5052945;28;20053;-65
2022/01/28 11:17:05;;;;;;;24.50;5.28;;;7.00;99.90;;;;;;5052134;28;20124;-64
2022/01/28 11:19:35;;;;;;;25.65;4.95;;;7.00;99.90;;;;;;5052959;28;20442;-65
2022/01/28 11:22:23;;;;;;;26.10;5.10;;;7.00;99.90;;;;;;5053410;28;20040;-64
2022/01/28 11:25:06;;;;;;;19.80;4.38;;;7.00;99.90;;;;;;5053017;28;20072;-64
2022/01/28 11:27:35;;;;;;;19.55;4.82;;;6.90;99.90;;;;;;5053038;28;20378;-64
2022/01/28 11:30:18;;;;;;;23.25;5.18;;;6.90;99.90;;;;;;5053447;28;20108;-64
2022/01/28 11:33:07;;;;;;;22.17;5.07;;;6.90;99.90;;;;;;5052298;28;20048;-66
2022/01/28 11:35:39;;;;;;;25.85;6.80;;;6.90;99.90;;;;;;5052816;28;20044;-64
2022/01/28 11:38:25;;;;;;;32.88;7.65;;;6.80;99.90;;;;;;5053056;28;20447;-64
2022/01/28 11:40:58;;;;;;;28.23;5.88;;;6.80;99.90;;;;;;5045838;28;20049;-65
2022/01/28 11:43:25;;;;;;;28.60;5.88;;;6.80;99.90;;;;;;5051951;28;20110;-66
2022/01/28 11:46:16;;;;;;;25.08;5.57;;;6.80;99.90;;;;;;5052284;28;20090;-63
2022/01/28 11:49:02;;;;;;;24.55;5.68;;;6.90;99.90;;;;;;5050923;28;20587;-64
2022/01/28 11:51:35;;;;;;;17.63;4.55;;;6.90;99.90;;;;;;5052944;28;20048;-64
2022/01/28 11:54:13;;;;;;;23.30;6.18;;;7.00;99.90;;;;;;5047534;28;20104;-65
2022/01/28 11:57:01;;;;;;;27.30;6.05;;;7.00;99.90;;;;;;5048432;28;20454;-65
2022/01/28 11:59:30;;;;;;;31.85;7.45;;;7.00;99.90;;;;;;5052343;28;20033;-63
2022/01/28 12:01:59;;;;;;;39.75;8.93;;;7.00;99.90;;;;;;5052215;28;20446;-64
2022/01/28 12:04:29;;;;;;;29.90;6.20;;;7.00;99.90;;;;;;5052800;28;20094;-64
2022/01/28 12:07:18;;;;;;;24.05;5.55;;;7.00;99.90;;;;;;5051509;28;20052;-64
2022/01/28 12:09:54;;;;;;;23.20;5.47;;;7.10;99.90;;;;;;5053082;28;20087;-64
2022/01/28 12:12:39;;;;;;;26.17;6.15;;;7.10;99.90;;;;;;5053510;28;20041;-63
2022/01/28 12:15:10;;;;;;;19.42;4.80;;;7.10;99.90;;;;;;5052242;28;20056;-65
2022/01/28 12:17:38;;;;;;;19.17;4.00;;;7.10;99.90;;;;;;5052553;28;20111;-65
2022/01/28 12:20:15;;;;;;;21.65;4.82;;;7.10;99.90;;;;;;5056568;28;20094;-64
2022/01/28 12:23:02;;;;;;;20.20;4.65;;;7.10;99.90;;;;;;5055410;28;20037;-65
2022/01/28 12:25:37;;;;;;;25.48;4.75;;;7.10;99.90;;;;;;5056179;28;20049;-64
2022/01/28 12:28:18;;;;;;;;;;;7.10;99.90;;;;;;5056952;28;20120;-64
2022/01/28 12:31:15;;;;;;;23.70;4.22;;;7.00;99.90;;;;;;5056269;28;20337;-66
2022/01/28 12:33:56;;;;;;;22.20;3.85;;;7.00;99.90;;;;;;5053878;28;20057;-64
2022/01/28 12:36:26;;;;;;;27.15;4.95;;;7.00;99.90;;;;;;5055915;28;20400;-63
2022/01/28 12:41:24;;;;;;;21.52;4.07;;;7.10;99.90;;;;;;5056108;28;20481;-64
2022/01/28 12:43:50;;;;;;;20.17;4.22;;;7.20;99.90;;;;;;5055933;28;20128;-64
2022/01/28 12:46:16;;;;;;;19.85;3.70;;;7.20;99.90;;;;;;5045632;28;20127;-65
2022/01/28 12:48:53;;;;;;;23.38;3.95;;;7.20;99.90;;;;;;5045396;28;20041;-64
2022/01/28 12:51:23;;;;;;;19.48;3.67;;;7.20;99.90;;;;;;5035280;28;20120;-64
2022/01/28 12:53:54;;;;;;;27.38;4.00;;;7.20;99.90;;;;;;5036170;28;20041;-65
2022/01/28 12:56:50;;;;;;;19.15;3.42;;;7.20;99.90;;;;;;5044988;28;20056;-65
2022/01/28 12:59:16;;;;;;;21.40;3.97;;;7.20;99.90;;;;;;5047872;28;20064;-66
2022/01/28 13:01:50;;;;;;;23.20;3.92;;;7.10;99.90;;;;;;5054965;28;20041;-64
2022/01/28 13:04:19;;;;;;;29.83;4.30;;;7.10;99.90;;;;;;5056107;28;20123;-65
2022/01/28 13:09:19;;;;;;;21.20;4.03;;;7.20;99.90;;;;;;5054987;28;20166;-66
2022/01/28 13:11:47;;;;;;;17.88;3.70;;;7.10;99.90;;;;;;5055942;28;20131;-65
2022/01/28 13:14:14;;;;;;;24.95;4.30;;;7.10;99.90;;;;;;5054563;28;20056;-64
2022/01/28 13:16:45;;;;;;;20.90;3.58;;;7.20;99.90;;;;;;5055142;28;20124;-64
2022/01/28 13:19:13;;;;;;;16.40;3.35;;;7.10;99.90;;;;;;5054372;28;20545;-65
2022/01/28 13:21:41;;;;;;;31.83;5.60;;;7.10;99.90;;;;;;5047078;28;20065;-67
2022/01/28 13:24:22;;;;;;;25.02;4.75;;;7.10;99.90;;;;;;5035706;28;20045;-65
2022/01/28 13:27:05;;;;;;;21.48;5.05;;;7.00;99.90;;;;;;5048061;28;20553;-64
2022/01/28 13:29:44;;;;;;;18.58;4.10;;;7.00;99.90;;;;;;5055259;28;20041;-64
2022/01/28 13:32:12;;;;;;;14.82;3.30;;;7.00;99.90;;;;;;5055267;28;20036;-65
2022/01/28 13:34:50;;;;;;;14.95;3.33;;;7.10;99.90;;;;;;5053899;28;20051;-65
2022/01/28 13:37:38;;;;;;;21.17;3.53;;;7.10;99.90;;;;;;5055208;28;20055;-64
2022/01/28 13:40:29;;;;;;;18.90;3.22;;;7.10;99.90;;;;;;5054028;28;20045;-63
2022/01/28 13:43:01;;;;;;;19.35;2.83;;;7.00;99.90;;;;;;5055031;28;20041;-65
2022/01/28 13:45:31;;;;;;;16.02;3.53;;;7.00;99.90;;;;;;5053731;28;20049;-65
2022/01/28 13:47:58;;;;;;;22.10;4.38;;;7.10;99.90;;;;;;5054936;28;20220;-64
2022/01/28 13:50:25;;;;;;;20.33;4.63;;;7.10;99.90;;;;;;5054991;28;20175;-64
2022/01/28 13:56:13;;;;;;;14.98;4.10;;;7.10;99.90;;;;;;5039293;28;20052;-62
2022/01/28 13:58:51;;;;;;;18.48;3.30;;;7.30;99.90;;;;;;5054826;28;20435;-65
2022/01/28 14:01:17;;;;;;;19.17;3.17;;;7.30;99.90;;;;;;5053732;28;20073;-64
2022/01/28 14:04:03;;;;;;;18.52;3.25;;;7.30;99.90;;;;;;5054232;28;20458;-65
2022/01/28 14:06:31;;;;;;;17.35;3.20;;;7.30;99.90;;;;;;5054012;28;20055;-63
2022/01/28 14:09:06;;;;;;;19.38;3.47;;;7.40;99.90;;;;;;5054775;28;20068;-62
2022/01/28 14:11:40;;;;;;;17.67;3.35;;;7.40;99.90;;;;;;5046388;28;20443;-63
2022/01/28 14:14:35;;;;;;;17.30;2.95;;;7.40;99.90;;;;;;5050595;28;20057;-63
2022/01/28 14:17:07;;;;;;;11.52;2.25;;;7.40;99.90;;;;;;5052776;28;20057;-64
2022/01/28 14:19:39;;;;;;;16.63;3.20;;;7.40;99.90;;;;;;5043804;28;20084;-63
2022/01/28 14:22:08;;;;;;;18.08;2.78;;;7.40;99.90;;;;;;5034567;28;20056;-65
2022/01/28 14:24:38;;;;;;;15.82;2.97;;;7.40;99.90;;;;;;5033550;28;20037;-65
2022/01/28 14:32:05;;;;;;;12.63;2.58;;;7.40;99.90;;;;;;5053455;28;20037;-64
2022/01/28 14:34:31;;;;;;;16.25;3.20;;;7.50;99.90;;;;;;5052979;28;20036;-64
2022/01/28 14:36:58;;;;;;;20.83;3.55;;;7.50;99.90;;;;;;5050080;28;20467;-64